Time;durP1;ratioP1;P1;durP2;ratioP2;P2;SDS_P1;SDS_P2;PMS_P1;PMS_P2;Temp;Humidity;BMP_temperature;BMP_pressure;BME280_temperature;BME280_humidity;BME280_pressure;Samples;Min_cycle;Max_cycle;Signal;HPM_P1;HPM_P2
2021/08/16 13:38:30;;;;;;;3.42;0.98;;;25.40;85.10;;;;;;5128156;23;20140;-50
2021/08/16 13:40:58;;;;;;;4.75;0.90;;;25.00;86.20;;;;;;4878779;29;20041;-48
2021/08/16 13:43:23;;;;;;;3.28;1.15;;;24.50;86.30;;;;;;4876590;29;20029;-49
2021/08/16 13:45:49;;;;;;;4.05;0.95;;;24.20;87.60;;;;;;4861287;29;20036;-50
2021/08/16 13:48:15;;;;;;;3.33;1.23;;;24.30;88.30;;;;;;4876702;29;20045;-51
2021/08/16 13:50:43;;;;;;;4.90;1.10;;;24.30;89.10;;;;;;4876961;29;20037;-50
2021/08/16 13:53:11;;;;;;;2.15;0.73;;;24.30;88.70;;;;;;4844327;29;20037;-48
2021/08/16 13:55:36;;;;;;;5.93;1.30;;;24.10;88.30;;;;;;4874336;29;20024;-49
2021/08/16 13:58:02;;;;;;;7.57;0.80;;;24.00;88.80;;;;;;4867103;29;20066;-44
2021/08/16 14:00:28;;;;;;;3.92;0.90;;;23.80;89.90;;;;;;4875562;29;20362;-46
2021/08/16 14:02:54;;;;;;;5.82;1.45;;;23.80;90.00;;;;;;4877410;29;20029;-42
2021/08/16 14:05:20;;;;;;;3.95;0.88;;;23.80;90.10;;;;;;4876546;29;20029;-42
2021/08/16 14:07:46;;;;;;;6.03;1.33;;;23.90;90.40;;;;;;4876832;29;20040;-43
2021/08/16 14:10:12;;;;;;;6.60;0.55;;;23.80;91.20;;;;;;4859738;29;20045;-42
2021/08/16 14:12:40;;;;;;;5.60;0.80;;;23.60;91.10;;;;;;4876727;29;20029;-45
2021/08/16 14:15:07;;;;;;;1.50;0.70;;;23.40;90.90;;;;;;4876518;29;20049;-48
2021/08/16 14:17:33;;;;;;;3.67;0.45;;;23.50;91.00;;;;;;4877160;29;20116;-44
2021/08/16 14:19:58;;;;;;;3.55;0.40;;;23.50;91.00;;;;;;4855645;29;20498;-44
2021/08/16 14:22:24;;;;;;;5.53;0.50;;;24.00;90.60;;;;;;4856159;29;20037;-44
2021/08/16 14:24:50;;;;;;;3.25;0.82;;;24.40;89.80;;;;;;4856257;29;20040;-43
2021/08/16 14:27:16;;;;;;;3.00;0.47;;;24.60;89.70;;;;;;4855730;29;20055;-45
2021/08/16 14:29:42;;;;;;;3.75;0.70;;;24.80;89.70;;;;;;4856126;29;20052;-44
2021/08/16 14:32:10;;;;;;;1.88;0.47;;;24.80;89.00;;;;;;4855656;29;20101;-43
2021/08/16 14:34:35;;;;;;;2.50;0.80;;;24.40;89.80;;;;;;4856702;29;20041;-43
2021/08/16 14:37:01;;;;;;;1.67;0.68;;;24.10;90.20;;;;;;4855886;29;20547;-43
2021/08/16 14:39:27;;;;;;;2.42;0.80;;;24.20;90.30;;;;;;4855009;29;20133;-44
2021/08/16 14:41:53;;;;;;;1.52;0.60;;;24.20;90.50;;;;;;4855867;29;20037;-46
2021/08/16 14:44:19;;;;;;;5.57;0.85;;;24.20;90.30;;;;;;4864394;29;20065;-43
2021/08/16 14:46:44;;;;;;;5.80;1.05;;;24.20;90.80;;;;;;4855764;29;20819;-46
2021/08/16 14:49:10;;;;;;;8.27;1.20;;;24.00;90.30;;;;;;4854009;29;20041;-45
2021/08/16 14:51:36;;;;;;;2.05;0.77;;;23.80;90.50;;;;;;4862726;29;20361;-42
2021/08/16 14:54:02;;;;;;;2.85;0.70;;;23.70;91.00;;;;;;4860767;29;20155;-44
2021/08/16 14:56:28;;;;;;;3.22;0.70;;;23.70;90.80;;;;;;4878408;29;20082;-44
2021/08/16 14:58:54;;;;;;;2.72;0.60;;;23.50;90.80;;;;;;4877607;29;20064;-45
2021/08/16 15:01:19;;;;;;;1.65;0.45;;;23.80;91.00;;;;;;4860214;29;20037;-44
2021/08/16 15:03:45;;;;;;;2.33;0.47;;;23.80;91.20;;;;;;4877094;29;20142;-43
2021/08/16 15:06:11;;;;;;;4.55;0.70;;;23.90;90.60;;;;;;4876072;29;20348;-48
2021/08/16 15:08:38;;;;;;;3.95;0.52;;;23.80;90.90;;;;;;4876740;29;20403;-41
2021/08/16 15:11:04;;;;;;;9.73;3.58;;;23.60;90.70;;;;;;4860122;29;20041;-46
2021/08/16 15:13:32;;;;;;;3.05;1.50;;;23.60;91.70;;;;;;4858146;29;20060;-44
2021/08/16 15:16:02;;;;;;;24.88;10.82;;;23.60;92.00;;;;;;4876532;29;20029;-44
2021/08/16 15:18:28;;;;;;;5.55;1.38;;;23.70;92.00;;;;;;4859911;29;20713;-43
2021/08/16 15:20:54;;;;;;;7.18;0.90;;;23.50;91.20;;;;;;4877326;29;20083;-41
2021/08/16 15:23:20;;;;;;;5.32;0.65;;;23.50;91.30;;;;;;4875638;29;20376;-47
2021/08/16 15:25:48;;;;;;;1.30;0.50;;;23.10;92.90;;;;;;4876702;29;20033;-44
2021/08/16 15:28:14;;;;;;;2.05;0.30;;;22.80;93.80;;;;;;4875552;29;20081;-43
2021/08/16 15:30:40;;;;;;;3.00;0.98;;;22.50;94.90;;;;;;4877735;29;20037;-43
2021/08/16 15:33:06;;;;;;;4.25;0.73;;;22.20;95.50;;;;;;4860493;29;20033;-43
2021/08/16 15:35:32;;;;;;;4.28;0.82;;;22.10;96.20;;;;;;4877596;29;20025;-42
2021/08/16 15:37:58;;;;;;;3.85;0.93;;;22.10;96.50;;;;;;4860313;29;20064;-43
2021/08/16 15:40:23;;;;;;;3.15;0.70;;;22.00;96.30;;;;;;4876175;29;20041;-43
2021/08/16 15:42:49;;;;;;;2.17;1.48;;;21.70;96.50;;;;;;4876148;29;20139;-41
2021/08/16 15:45:16;;;;;;;6.38;1.63;;;21.60;96.00;;;;;;4876312;29;20031;-43
2021/08/16 15:47:42;;;;;;;3.17;2.33;;;21.50;96.10;;;;;;4877841;29;20412;-43
2021/08/16 15:50:09;;;;;;;3.60;2.15;;;21.60;95.90;;;;;;4859824;29;20211;-50
2021/08/16 15:52:37;;;;;;;4.90;3.65;;;21.50;95.70;;;;;;4859710;29;20211;-43
2021/08/16 15:55:04;;;;;;;3.88;2.42;;;21.50;95.30;;;;;;4877114;29;20063;-47
2021/08/16 15:57:30;;;;;;;3.92;2.80;;;21.80;95.80;;;;;;4858034;29;20033;-44
2021/08/16 15:59:56;;;;;;;6.20;4.70;;;21.90;95.60;;;;;;4877308;29;20052;-43
2021/08/16 16:02:22;;;;;;;9.30;4.00;;;22.00;94.60;;;;;;4872234;29;20033;-46
2021/08/16 16:04:47;;;;;;;5.47;3.90;;;22.20;95.10;;;;;;4876813;29;20037;-48
2021/08/16 16:07:13;;;;;;;9.52;4.88;;;22.50;94.30;;;;;;4893763;29;20052;-43
2021/08/16 16:09:39;;;;;;;8.35;5.32;;;22.40;93.40;;;;;;4861431;29;20036;-44
2021/08/16 16:12:06;;;;;;;9.35;5.35;;;22.40;93.50;;;;;;4874100;29;20037;-43
2021/08/16 16:14:33;;;;;;;29.65;7.10;;;22.20;92.90;;;;;;4874095;29;20037;-46
2021/08/16 16:16:58;;;;;;;13.65;5.88;;;22.60;94.70;;;;;;4875494;29;20036;-46
2021/08/16 16:19:25;;;;;;;15.13;5.63;;;22.70;93.20;;;;;;4842503;29;20040;-48
2021/08/16 16:21:51;;;;;;;8.27;5.25;;;22.70;93.80;;;;;;4876377;29;20093;-47
2021/08/16 16:24:16;;;;;;;10.63;6.00;;;22.70;93.60;;;;;;4858812;29;20490;-46
2021/08/16 16:26:42;;;;;;;13.13;5.75;;;22.90;93.00;;;;;;4875749;29;20032;-46
2021/08/16 16:29:08;;;;;;;7.57;5.65;;;23.00;92.70;;;;;;4859921;29;20036;-47
2021/08/16 16:31:35;;;;;;;13.90;7.45;;;23.10;92.20;;;;;;4858540;29;20481;-47
2021/08/16 16:34:01;;;;;;;8.93;6.10;;;23.10;92.50;;;;;;4876817;29;20029;-46
2021/08/16 16:36:27;;;;;;;12.18;6.75;;;22.90;92.10;;;;;;4873130;29;20059;-46
2021/08/16 16:38:53;;;;;;;14.57;7.53;;;22.80;91.90;;;;;;4875840;29;21047;-47
2021/08/16 16:41:19;;;;;;;10.48;7.18;;;22.80;92.10;;;;;;4874959;29;20183;-44
2021/08/16 16:43:45;;;;;;;9.70;7.25;;;22.50;92.00;;;;;;4875475;29;20507;-44
2021/08/16 16:46:14;;;;;;;12.15;7.10;;;22.40;92.00;;;;;;4858080;29;20025;-51
2021/08/16 16:48:40;;;;;;;10.95;8.18;;;22.10;92.20;;;;;;4875326;29;20039;-45
2021/08/16 16:51:06;;;;;;;11.18;8.30;;;21.90;91.50;;;;;;4875425;29;20025;-44
2021/08/16 16:53:33;;;;;;;12.98;8.68;;;21.60;93.40;;;;;;4862793;29;20097;-43
2021/08/16 16:56:00;;;;;;;13.65;8.73;;;21.60;91.60;;;;;;4871475;29;20033;-46
2021/08/16 16:58:26;;;;;;;13.45;8.02;;;21.60;91.50;;;;;;4864942;29;20037;-45
2021/08/16 17:00:52;;;;;;;12.95;8.18;;;21.50;92.70;;;;;;4872930;29;20049;-44
2021/08/16 17:03:17;;;;;;;13.00;8.27;;;21.80;92.70;;;;;;4873711;29;20135;-44
2021/08/16 17:05:43;;;;;;;14.85;8.57;;;21.90;92.20;;;;;;4858496;29;20268;-43
2021/08/16 17:08:09;;;;;;;12.07;8.57;;;21.70;91.80;;;;;;4874400;29;20048;-43
2021/08/16 17:10:34;;;;;;;11.27;9.02;;;21.90;92.40;;;;;;4874323;29;20533;-45
2021/08/16 17:13:00;;;;;;;14.73;9.07;;;22.00;91.90;;;;;;4874235;29;20337;-44
2021/08/16 17:15:25;;;;;;;24.35;9.82;;;21.80;91.50;;;;;;4860072;29;20033;-43
2021/08/16 17:17:51;;;;;;;12.48;9.70;;;21.70;91.40;;;;;;4878496;29;20033;-44
2021/08/16 17:20:17;;;;;;;15.43;9.38;;;21.40;92.10;;;;;;4876491;29;20040;-43
2021/08/16 17:22:42;;;;;;;14.65;8.85;;;21.30;92.00;;;;;;4876851;29;20120;-46
2021/08/16 17:25:09;;;;;;;11.38;9.00;;;21.30;92.40;;;;;;4878784;29;20092;-43
2021/08/16 17:27:35;;;;;;;20.55;9.68;;;21.10;92.10;;;;;;4878701;29;20375;-45
2021/08/16 17:30:02;;;;;;;12.90;9.02;;;20.80;92.50;;;;;;4873392;29;20376;-66
2021/08/16 17:32:28;;;;;;;13.63;9.07;;;20.70;92.70;;;;;;4876899;29;20017;-69
2021/08/16 17:34:53;;;;;;;14.13;9.55;;;20.30;92.90;;;;;;4862996;29;20052;-67
2021/08/16 17:37:19;;;;;;;16.38;10.00;;;20.00;93.50;;;;;;4861898;29;20074;-66
2021/08/16 17:39:45;;;;;;;14.35;10.15;;;19.90;93.80;;;;;;4877725;29;20124;-69
2021/08/16 17:42:10;;;;;;;12.40;9.30;;;19.80;94.30;;;;;;4860848;29;20045;-71
2021/08/16 17:44:36;;;;;;;12.68;9.40;;;19.70;94.10;;;;;;4861072;29;20033;-66
2021/08/16 17:47:03;;;;;;;12.45;8.57;;;19.40;94.50;;;;;;4878027;29;20535;-66
2021/08/16 17:49:29;;;;;;;14.27;9.88;;;19.20;95.00;;;;;;4860794;29;20044;-67
2021/08/16 17:51:56;;;;;;;18.33;10.05;;;19.20;95.20;;;;;;4878978;29;20069;-67
2021/08/16 17:54:22;;;;;;;17.88;9.77;;;19.30;94.90;;;;;;4860877;29;20025;-67
2021/08/16 17:56:48;;;;;;;11.52;9.20;;;19.10;95.50;;;;;;4878345;29;20033;-66
2021/08/16 17:59:14;;;;;;;13.57;9.40;;;19.10;95.50;;;;;;4877345;29;20036;-70
2021/08/16 18:01:41;;;;;;;18.45;8.48;;;19.10;95.50;;;;;;4860911;29;20033;-66
2021/08/16 18:04:07;;;;;;;13.00;8.00;;;19.10;95.70;;;;;;4877715;29;20510;-65
2021/08/16 18:06:33;;;;;;;10.75;7.43;;;18.90;95.90;;;;;;4877175;29;20096;-65
2021/08/16 18:09:00;;;;;;;12.18;7.07;;;18.90;95.90;;;;;;4860632;29;20380;-67
2021/08/16 18:11:26;;;;;;;10.02;7.10;;;18.80;96.00;;;;;;4876760;29;20401;-65
2021/08/16 18:13:52;;;;;;;7.00;5.07;;;18.70;96.10;;;;;;4860479;29;20029;-65
2021/08/16 18:16:18;;;;;;;7.25;5.32;;;18.60;95.90;;;;;;4861144;29;20399;-66
2021/08/16 18:18:44;;;;;;;9.90;4.10;;;18.60;95.90;;;;;;4877480;29;20092;-67
2021/08/16 18:21:10;;;;;;;6.90;4.15;;;18.70;95.60;;;;;;4860769;29;20391;-68
2021/08/16 18:23:37;;;;;;;6.43;3.17;;;18.50;96.00;;;;;;4860818;29;20029;-66
2021/08/16 18:26:06;;;;;;;6.38;3.85;;;18.50;96.10;;;;;;4859710;29;20111;-67
2021/08/16 18:28:33;;;;;;;3.78;2.22;;;18.40;96.30;;;;;;4876569;29;20033;-66
2021/08/16 18:30:59;;;;;;;5.22;2.75;;;18.40;96.10;;;;;;4859897;29;20395;-67
2021/08/16 18:33:24;;;;;;;3.38;1.88;;;18.60;95.60;;;;;;4876944;29;20029;-66
2021/08/16 18:35:51;;;;;;;4.28;1.92;;;18.60;95.30;;;;;;4875977;29;20029;-67
2021/08/16 18:38:17;;;;;;;2.40;1.95;;;18.50;95.20;;;;;;4876371;29;20104;-69
2021/08/16 18:40:43;;;;;;;3.15;2.20;;;18.50;95.90;;;;;;4875855;29;20221;-71
2021/08/16 18:43:10;;;;;;;4.88;2.15;;;18.30;95.70;;;;;;4860209;29;20033;-74
2021/08/16 18:45:36;;;;;;;6.55;2.10;;;18.20;97.30;;;;;;4860336;29;20029;-71
2021/08/16 18:48:03;;;;;;;5.93;2.10;;;18.60;98.80;;;;;;4860077;29;20533;-71
2021/08/16 18:50:29;;;;;;;3.20;1.60;;;18.70;98.30;;;;;;4857417;29;20039;-75
2021/08/16 18:52:55;;;;;;;7.10;2.28;;;18.80;98.50;;;;;;4860430;29;20077;-73
2021/08/16 18:55:21;;;;;;;5.80;1.98;;;18.70;98.60;;;;;;4875958;29;20136;-74
2021/08/16 18:57:47;;;;;;;5.68;1.90;;;18.60;98.10;;;;;;4876981;29;20112;-72
2021/08/16 19:00:14;;;;;;;7.00;1.45;;;18.40;97.90;;;;;;4875888;29;20542;-71
2021/08/16 19:02:44;;;;;;;3.17;1.75;;;18.20;98.90;;;;;;4860431;29;20548;-66
2021/08/16 19:05:11;;;;;;;6.03;2.40;;;18.10;99.00;;;;;;4874982;29;20052;-67
2021/08/16 19:07:37;;;;;;;5.70;2.10;;;17.90;99.50;;;;;;4876732;29;20037;-69
2021/08/16 19:10:04;;;;;;;2.70;1.55;;;17.60;99.90;;;;;;4859206;29;20045;-74
2021/08/16 19:12:30;;;;;;;4.60;2.53;;;17.60;99.90;;;;;;4877239;29;20831;-74
2021/08/16 19:14:56;;;;;;;3.78;2.10;;;17.90;99.90;;;;;;4860401;29;20107;-74
2021/08/16 19:17:22;;;;;;;7.10;3.13;;;18.00;99.90;;;;;;4874339;29;20060;-71
2021/08/16 19:19:48;;;;;;;5.78;1.85;;;18.10;99.90;;;;;;4860955;29;20056;-66
2021/08/16 19:22:16;;;;;;;4.55;1.60;;;18.00;99.90;;;;;;4877560;29;20526;-65
2021/08/16 19:24:42;;;;;;;3.70;2.00;;;17.80;99.90;;;;;;4861943;29;20029;-66
2021/08/16 19:27:08;;;;;;;4.30;1.75;;;17.80;99.90;;;;;;4861883;29;20116;-67
2021/08/16 19:29:34;;;;;;;2.90;1.75;;;17.80;99.90;;;;;;4877866;29;20049;-66
2021/08/16 19:31:59;;;;;;;2.45;1.60;;;17.70;99.90;;;;;;4861820;29;20479;-66
2021/08/16 19:34:25;;;;;;;5.82;1.67;;;17.70;99.90;;;;;;4878127;29;20041;-67
2021/08/16 19:36:51;;;;;;;3.78;1.77;;;17.60;99.90;;;;;;4877349;29;20064;-66
2021/08/16 19:39:17;;;;;;;2.92;1.63;;;17.70;99.90;;;;;;4877526;29;20140;-66
2021/08/16 19:41:44;;;;;;;6.85;1.67;;;17.40;99.90;;;;;;4861779;29;20032;-65
2021/08/16 19:44:10;;;;;;;4.40;1.60;;;17.20;99.90;;;;;;4877236;29;20037;-66
2021/08/16 19:46:37;;;;;;;3.45;1.65;;;17.20;99.90;;;;;;4860993;29;20442;-67
2021/08/16 19:49:06;;;;;;;2.17;1.02;;;17.30;99.90;;;;;;4861632;29;20124;-66
2021/08/16 19:51:33;;;;;;;2.72;1.23;;;17.20;99.90;;;;;;4860769;29;20033;-65
2021/08/16 19:54:00;;;;;;;1.70;1.25;;;17.30;99.90;;;;;;4878108;29;20040;-65
2021/08/16 19:56:27;;;;;;;2.95;1.33;;;17.20;99.90;;;;;;4860493;29;20072;-66
2021/08/16 19:58:53;;;;;;;2.35;1.35;;;17.10;99.90;;;;;;4860964;29;20033;-66
2021/08/16 20:01:22;;;;;;;4.13;1.80;;;16.90;99.90;;;;;;4860191;29;20033;-65
2021/08/16 20:03:49;;;;;;;2.83;1.30;;;16.90;99.90;;;;;;4878103;29;20183;-65
2021/08/16 20:06:15;;;;;;;2.75;1.45;;;16.90;99.90;;;;;;4877261;29;20065;-67
2021/08/16 20:08:40;;;;;;;3.90;1.50;;;16.70;99.90;;;;;;4877655;29;20049;-65
2021/08/16 20:11:07;;;;;;;6.35;1.67;;;16.70;99.90;;;;;;4876379;29;20033;-65
2021/08/16 20:13:33;;;;;;;3.72;2.13;;;16.70;99.90;;;;;;4876999;29;20048;-65
2021/08/16 20:16:00;;;;;;;3.88;1.85;;;16.70;99.90;;;;;;4860789;29;20029;-65
2021/08/16 20:18:27;;;;;;;2.60;1.33;;;16.80;99.90;;;;;;4860487;29;20039;-65
2021/08/16 20:20:52;;;;;;;2.45;1.55;;;16.80;99.90;;;;;;4861053;29;20033;-66
2021/08/16 20:23:18;;;;;;;2.90;1.65;;;16.80;99.90;;;;;;4877175;29;20376;-66
2021/08/16 20:25:44;;;;;;;3.58;2.20;;;16.80;99.90;;;;;;4860780;29;20052;-66
2021/08/16 20:28:10;;;;;;;2.90;2.30;;;16.80;99.90;;;;;;4860351;29;20105;-64
2021/08/16 20:30:36;;;;;;;3.75;1.85;;;16.70;99.90;;;;;;4860351;29;20041;-66
2021/08/16 20:33:01;;;;;;;3.90;2.30;;;16.70;99.90;;;;;;4860749;29;20029;-64
2021/08/16 20:35:27;;;;;;;3.88;2.72;;;16.70;99.90;;;;;;4876971;29;20514;-64
2021/08/16 20:37:52;;;;;;;3.85;2.20;;;16.60;99.90;;;;;;4860426;29;20460;-65
2021/08/16 20:40:18;;;;;;;3.05;1.73;;;16.60;99.90;;;;;;4876868;29;20033;-65
2021/08/16 20:42:44;;;;;;;5.22;2.33;;;16.60;99.90;;;;;;4877220;29;20037;-65
2021/08/16 20:45:10;;;;;;;4.68;2.70;;;16.60;99.90;;;;;;4877702;29;20525;-66
2021/08/16 20:47:35;;;;;;;6.28;2.20;;;16.70;99.90;;;;;;4859988;29;20044;-66
2021/08/16 20:50:03;;;;;;;4.22;1.65;;;16.60;99.90;;;;;;4860633;29;20056;-66
2021/08/16 20:52:28;;;;;;;3.97;2.38;;;16.70;99.90;;;;;;4859857;29;20029;-67
2021/08/16 20:54:54;;;;;;;6.50;2.25;;;16.60;99.90;;;;;;4860470;29;20120;-65
2021/08/16 20:57:20;;;;;;;4.32;2.17;;;16.60;99.90;;;;;;4876576;29;20040;-65
2021/08/16 20:59:45;;;;;;;4.10;1.92;;;16.60;99.90;;;;;;4860812;29;20029;-65
2021/08/16 21:02:11;;;;;;;4.25;2.13;;;16.60;99.90;;;;;;4860501;29;20033;-65
2021/08/16 21:04:37;;;;;;;3.42;2.17;;;16.60;99.90;;;;;;4876728;29;20033;-64
2021/08/16 21:07:03;;;;;;;3.78;2.13;;;16.60;99.90;;;;;;4876889;29;20440;-64
2021/08/16 21:09:30;;;;;;;4.97;2.15;;;16.60;99.90;;;;;;4859507;29;20080;-64
2021/08/16 21:11:56;;;;;;;4.35;2.10;;;16.50;99.90;;;;;;4877272;29;20132;-65
2021/08/16 21:14:21;;;;;;;7.80;2.30;;;16.60;99.90;;;;;;4859912;29;20120;-65
2021/08/16 21:16:47;;;;;;;4.97;2.70;;;16.60;99.90;;;;;;4860632;29;20104;-66
2021/08/16 21:19:12;;;;;;;7.10;2.45;;;16.50;99.90;;;;;;4860750;29;20076;-65
2021/08/16 21:21:38;;;;;;;2.85;2.08;;;16.40;99.90;;;;;;4860105;29;20029;-67
2021/08/16 21:24:04;;;;;;;7.25;3.10;;;16.30;99.90;;;;;;4877364;29;20455;-73
2021/08/16 21:26:30;;;;;;;6.45;2.50;;;16.20;99.90;;;;;;4859975;29;20405;-66
2021/08/16 21:28:56;;;;;;;3.70;1.80;;;16.20;99.90;;;;;;4877232;29;20069;-66
2021/08/16 21:31:22;;;;;;;6.70;2.38;;;16.20;99.90;;;;;;4859665;29;20475;-64
2021/08/16 21:33:47;;;;;;;10.27;3.38;;;15.90;99.90;;;;;;4877447;29;20029;-66
2021/08/16 21:36:13;;;;;;;4.80;2.65;;;15.90;99.90;;;;;;4877291;29;20025;-66
2021/08/16 21:38:39;;;;;;;4.70;2.08;;;15.80;99.90;;;;;;4876622;29;20085;-65
2021/08/16 21:41:05;;;;;;;6.43;2.40;;;15.90;99.90;;;;;;4860350;29;20033;-66
2021/08/16 21:43:32;;;;;;;7.13;2.33;;;16.00;99.90;;;;;;4859731;29;20033;-66
2021/08/16 21:45:57;;;;;;;6.13;3.40;;;16.00;99.90;;;;;;4860393;29;20057;-65
2021/08/16 21:48:23;;;;;;;6.68;2.83;;;15.90;99.90;;;;;;4859722;29;20032;-66
2021/08/16 21:50:49;;;;;;;6.88;2.13;;;15.80;99.90;;;;;;4876943;29;20116;-64
2021/08/16 21:53:14;;;;;;;4.82;2.38;;;15.90;99.90;;;;;;4860587;29;20195;-66
2021/08/16 21:55:40;;;;;;;4.10;2.40;;;16.00;99.90;;;;;;4859974;29;20033;-65
2021/08/16 21:58:06;;;;;;;4.40;2.50;;;15.90;99.90;;;;;;4876852;29;20489;-65
2021/08/16 22:00:31;;;;;;;6.57;2.33;;;15.90;99.90;;;;;;4860769;29;20025;-65
2021/08/16 22:02:57;;;;;;;3.40;2.42;;;15.80;99.90;;;;;;4864053;29;20025;-65
2021/08/16 22:05:23;;;;;;;4.95;2.35;;;15.70;99.90;;;;;;4862802;29;20479;-65
2021/08/16 22:07:48;;;;;;;6.20;2.63;;;15.80;99.90;;;;;;4863277;29;20064;-66
2021/08/16 22:10:14;;;;;;;9.70;2.65;;;15.60;99.90;;;;;;4878904;29;20386;-66
2021/08/16 22:12:40;;;;;;;5.78;2.20;;;15.60;99.90;;;;;;4878341;29;20385;-66
2021/08/16 22:15:07;;;;;;;5.05;2.92;;;15.60;99.90;;;;;;4863340;29;20025;-65
2021/08/16 22:17:33;;;;;;;8.90;2.72;;;15.60;99.90;;;;;;4879615;29;20033;-64
2021/08/16 22:19:59;;;;;;;5.72;2.72;;;15.60;99.90;;;;;;4863277;29;20029;-64
2021/08/16 22:22:24;;;;;;;6.30;2.78;;;15.50;99.90;;;;;;4862556;29;20164;-65
2021/08/16 22:24:50;;;;;;;10.63;2.72;;;15.50;99.90;;;;;;4879636;29;20029;-65
2021/08/16 22:27:16;;;;;;;6.78;2.38;;;15.50;99.90;;;;;;4879823;29;20382;-64
2021/08/16 22:29:41;;;;;;;11.63;3.42;;;15.50;99.90;;;;;;4879568;29;20127;-64
2021/08/16 22:32:10;;;;;;;8.00;3.47;;;15.50;99.90;;;;;;4880146;29;20037;-64
2021/08/16 22:34:35;;;;;;;4.95;3.40;;;15.50;99.90;;;;;;4879582;29;20448;-64
2021/08/16 22:37:01;;;;;;;6.97;2.47;;;15.60;99.90;;;;;;4879709;29;20064;-65
2021/08/16 22:39:27;;;;;;;8.63;2.50;;;15.50;99.90;;;;;;4878757;29;20136;-64
2021/08/16 22:41:52;;;;;;;5.18;2.30;;;15.50;99.90;;;;;;4879761;29;20043;-68
2021/08/16 22:44:18;;;;;;;7.53;2.78;;;15.50;99.90;;;;;;4862294;29;20033;-64
2021/08/16 22:46:44;;;;;;;13.55;3.15;;;15.50;99.90;;;;;;4879002;29;20029;-64
2021/08/16 22:49:09;;;;;;;7.15;2.80;;;15.50;99.90;;;;;;4879738;29;20056;-66
2021/08/16 22:51:35;;;;;;;6.90;2.65;;;15.50;99.90;;;;;;4862326;29;20394;-65
2021/08/16 22:54:02;;;;;;;8.07;2.75;;;15.40;99.90;;;;;;4879647;29;20037;-64
2021/08/16 22:56:27;;;;;;;4.97;2.50;;;15.50;99.90;;;;;;4878583;29;20025;-65
2021/08/16 22:58:53;;;;;;;5.38;2.72;;;15.50;99.90;;;;;;4862564;29;20120;-64
2021/08/16 23:01:19;;;;;;;5.05;2.58;;;15.50;99.90;;;;;;4862339;29;20084;-64
2021/08/16 23:03:44;;;;;;;6.65;2.58;;;15.40;99.90;;;;;;4878844;29;20032;-65
2021/08/16 23:06:11;;;;;;;5.32;2.58;;;15.50;99.90;;;;;;4879692;29;20033;-64
2021/08/16 23:08:36;;;;;;;7.75;2.90;;;15.40;99.90;;;;;;4861917;29;20044;-65
2021/08/16 23:11:02;;;;;;;9.35;2.38;;;15.40;99.90;;;;;;4879040;29;20164;-64
2021/08/16 23:13:28;;;;;;;6.82;3.03;;;15.40;99.90;;;;;;4861837;29;20120;-64
2021/08/16 23:15:54;;;;;;;6.90;3.00;;;15.20;99.90;;;;;;4862265;29;20108;-64
2021/08/16 23:18:20;;;;;;;7.82;3.10;;;15.30;99.90;;;;;;4862104;29;20033;-65
2021/08/16 23:20:46;;;;;;;7.53;2.80;;;15.30;99.90;;;;;;4877316;29;20033;-67
2021/08/16 23:23:12;;;;;;;9.07;3.13;;;15.20;99.90;;;;;;4879276;29;20040;-65
2021/08/16 23:25:37;;;;;;;5.22;2.63;;;15.20;99.90;;;;;;4878265;29;20113;-65
2021/08/16 23:28:03;;;;;;;9.20;2.63;;;15.20;99.90;;;;;;4879102;29;20033;-64
2021/08/16 23:30:29;;;;;;;10.10;3.42;;;15.20;99.90;;;;;;4877059;29;20036;-64
2021/08/16 23:32:54;;;;;;;5.50;2.63;;;15.20;99.90;;;;;;4862144;29;20039;-64
2021/08/16 23:35:20;;;;;;;4.50;2.35;;;15.20;99.90;;;;;;4862227;29;20033;-65
2021/08/16 23:37:47;;;;;;;7.72;3.00;;;15.20;99.90;;;;;;4861132;29;20499;-64
2021/08/16 23:40:14;;;;;;;5.53;3.15;;;15.20;99.90;;;;;;4861636;29;20063;-71
2021/08/16 23:42:40;;;;;;;5.72;2.65;;;15.10;99.90;;;;;;4861226;29;20111;-63
2021/08/16 23:45:07;;;;;;;6.13;3.20;;;15.10;99.90;;;;;;4861871;29;20127;-64
2021/08/16 23:47:33;;;;;;;7.03;2.83;;;15.10;99.90;;;;;;4861024;29;20039;-64
2021/08/16 23:49:59;;;;;;;8.43;3.17;;;15.10;99.90;;;;;;4861662;29;20459;-64
2021/08/16 23:52:24;;;;;;;8.02;2.70;;;15.10;99.90;;;;;;4877134;29;20438;-64
2021/08/16 23:54:50;;;;;;;8.43;2.92;;;15.10;99.90;;;;;;4860981;29;20029;-65
2021/08/16 23:57:15;;;;;;;7.55;2.85;;;15.10;99.90;;;;;;4878291;29;20463;-65
2021/08/16 23:59:41;;;;;;;6.65;2.50;;;15.10;99.90;;;;;;4877209;29;20479;-69
